Time;durP1;ratioP1;P1;durP2;ratioP2;P2;SDS_P1;SDS_P2;PMS_P1;PMS_P2;Temp;Humidity;BMP_temperature;BMP_pressure;BME280_temperature;BME280_humidity;BME280_pressure;Samples;Min_cycle;Max_cycle;Signal;HPM_P1;HPM_P2
2023/03/10 00:01:24;;;;;;;13.80;9.30;;;;;;;12.99;71.50;99110.00;5032483;28;20143;-65
2023/03/10 00:03:51;;;;;;;12.25;8.13;;;;;;;12.84;71.31;99113.75;5033584;28;20259;-66
2023/03/10 00:06:19;;;;;;;12.27;7.95;;;;;;;12.63;72.43;99119.91;5032315;28;20041;-66
2023/03/10 00:08:45;;;;;;;10.35;8.18;;;;;;;12.76;71.80;99114.72;5032339;28;20150;-65
2023/03/10 00:11:11;;;;;;;11.65;8.75;;;;;;;12.93;71.46;99110.75;5032787;28;20045;-65
2023/03/10 00:13:37;;;;;;;13.00;8.73;;;;;;;13.12;70.73;99125.22;5031616;28;20048;-65
2023/03/10 00:16:03;;;;;;;14.10;8.50;;;;;;;13.29;70.08;99126.59;5033522;28;20041;-64
2023/03/10 00:18:29;;;;;;;12.32;7.93;;;;;;;13.41;69.75;99114.41;5032971;28;20123;-66
2023/03/10 00:20:55;;;;;;;13.50;8.65;;;;;;;13.52;69.32;99115.69;5033177;28;20033;-66
2023/03/10 00:23:21;;;;;;;12.10;7.90;;;;;;;13.50;68.61;99111.59;5032611;28;20072;-65
2023/03/10 00:25:58;;;;;;;11.27;7.85;;;;;;;13.28;69.64;99103.69;5032911;28;20099;-65
2023/03/10 00:28:24;;;;;;;11.48;7.53;;;;;;;13.26;69.71;99092.41;5033706;28;20105;-65
2023/03/10 00:31:20;;;;;;;12.48;8.32;;;;;;;13.14;69.91;99085.16;5032017;28;20033;-65
2023/03/10 00:33:46;;;;;;;13.95;8.93;;;;;;;13.21;70.46;99080.72;5032144;28;20374;-66
2023/03/10 00:36:26;;;;;;;14.75;12.18;;;;;;;13.32;70.09;99086.31;5033536;28;20038;-66
2023/03/10 00:38:53;;;;;;;10.82;8.38;;;;;;;13.45;68.90;99082.91;5032952;28;20227;-65
2023/03/10 00:41:21;;;;;;;12.85;8.25;;;;;;;13.54;68.25;99091.59;5030817;28;20041;-65
2023/03/10 00:43:47;;;;;;;13.10;8.07;;;;;;;13.46;68.40;99094.38;5031447;28;20080;-65
2023/03/10 00:46:13;;;;;;;10.80;7.75;;;;;;;13.44;68.37;99097.22;5032191;28;20223;-65
2023/03/10 00:48:39;;;;;;;11.90;7.75;;;;;;;13.45;68.57;99093.56;5031095;28;20438;-65
2023/03/10 00:51:05;;;;;;;10.50;7.55;;;;;;;13.47;68.47;99094.19;5032467;28;20512;-65
2023/03/10 00:53:32;;;;;;;12.10;7.60;;;;;;;13.45;68.19;99090.06;5030952;28;20045;-66
2023/03/10 00:56:11;;;;;;;10.10;7.53;;;;;;;13.47;67.73;99096.84;5032567;28;20132;-66
2023/03/10 00:58:36;;;;;;;12.68;7.53;;;;;;;13.44;68.07;99094.56;5031308;28;20052;-65
2023/03/10 01:01:03;;;;;;;17.02;8.48;;;;;;;13.38;68.44;99088.19;5030889;28;20406;-65
2023/03/10 01:03:29;;;;;;;17.17;10.00;;;;;;;13.35;68.53;99087.78;5031663;28;20536;-65
2023/03/10 01:05:55;;;;;;;13.73;11.35;;;;;;;13.25;69.21;99092.63;5030744;28;20061;-65
2023/03/10 01:08:21;;;;;;;15.10;11.35;;;;;;;13.20;69.08;99085.22;5031629;28;20053;-65
2023/03/10 01:10:47;;;;;;;13.60;9.63;;;;;;;13.25;69.81;99090.78;5033491;28;20143;-65
2023/03/10 01:13:15;;;;;;;10.93;7.63;;;;;;;13.25;66.47;99103.25;5035622;28;20050;-65
2023/03/10 01:15:43;;;;;;;13.20;8.82;;;;;;;12.97;65.65;99101.41;5034494;28;20346;-66
2023/03/10 01:18:09;;;;;;;12.98;8.20;;;;;;;13.03;64.74;99092.66;5034181;28;20204;-65
2023/03/10 01:20:36;;;;;;;14.43;8.95;;;;;;;13.07;65.40;99099.22;5033654;28;20033;-65
2023/03/10 01:23:01;;;;;;;14.73;10.02;;;;;;;13.10;65.97;99096.19;5034957;28;20041;-65
2023/03/10 01:25:27;;;;;;;14.43;9.52;;;;;;;13.16;65.91;99101.72;5035670;28;20096;-65
2023/03/10 01:27:53;;;;;;;13.77;8.70;;;;;;;13.20;66.45;99085.22;5034285;28;20373;-66
2023/03/10 01:30:18;;;;;;;15.02;10.13;;;;;;;13.17;67.57;99088.28;5035307;28;20064;-66
2023/03/10 01:32:44;;;;;;;15.65;10.30;;;;;;;13.11;68.37;99092.50;5034409;28;20045;-65
2023/03/10 01:35:10;;;;;;;13.73;9.95;;;;;;;12.97;68.39;99087.28;5035484;28;20048;-65
2023/03/10 01:37:36;;;;;;;27.85;13.07;;;;;;;12.98;68.61;99086.28;5034362;28;20048;-65
2023/03/10 01:40:04;;;;;;;15.70;10.35;;;;;;;12.97;68.34;99080.13;5035541;28;20330;-65
2023/03/10 01:42:30;;;;;;;17.13;10.68;;;;;;;12.89;69.19;99084.78;5034283;28;20043;-65
2023/03/10 01:45:09;;;;;;;15.70;9.68;;;;;;;12.95;69.37;99086.66;5034725;28;20366;-65
2023/03/10 01:47:35;;;;;;;15.88;10.10;;;;;;;13.03;68.75;99086.50;5035369;28;20033;-66
2023/03/10 01:50:03;;;;;;;13.82;10.85;;;;;;;13.11;68.56;99089.84;5033535;28;20069;-65
2023/03/10 01:52:31;;;;;;;15.88;10.75;;;;;;;13.15;68.69;99086.78;5033878;28;20405;-65
2023/03/10 01:55:06;;;;;;;13.70;9.80;;;;;;;13.09;67.06;99086.56;5034480;28;20034;-65
2023/03/10 01:57:38;;;;;;;13.10;9.45;;;;;;;13.13;66.92;99086.16;5033935;28;20063;-65
2023/03/10 02:00:12;;;;;;;13.77;9.90;;;;;;;13.13;66.46;99088.81;5034201;28;20104;-65
2023/03/10 02:03:10;;;;;;;14.88;10.13;;;;;;;13.11;66.97;99073.91;5033985;28;20034;-65
2023/03/10 02:05:39;;;;;;;15.90;9.18;;;;;;;13.17;66.07;99080.31;5032997;28;20037;-64
2023/03/10 02:08:05;;;;;;;13.27;9.55;;;;;;;13.13;65.19;99084.34;5034220;28;20041;-65
2023/03/10 02:10:31;;;;;;;13.98;9.73;;;;;;;13.10;64.89;99087.38;5033853;28;20049;-65
2023/03/10 02:12:57;;;;;;;13.35;9.13;;;;;;;13.04;63.99;99081.00;5035941;28;20037;-63
2023/03/10 02:15:22;;;;;;;15.05;8.90;;;;;;;12.84;64.37;99080.03;5035410;28;20087;-64
2023/03/10 02:17:50;;;;;;;13.73;9.20;;;;;;;12.46;66.60;99082.94;5035617;28;20366;-64
2023/03/10 02:20:16;;;;;;;15.60;10.15;;;;;;;12.18;68.06;99089.19;5032993;28;20381;-64
2023/03/10 02:22:41;;;;;;;13.27;9.02;;;;;;;11.79;69.16;99096.53;5034676;28;20045;-64
2023/03/10 02:25:21;;;;;;;12.23;8.98;;;;;;;11.53;71.28;99093.50;5035633;28;20212;-64
2023/03/10 02:27:47;;;;;;;13.00;9.45;;;;;;;11.38;72.32;99100.59;5034729;28;20523;-64
2023/03/10 02:30:30;;;;;;;13.45;9.20;;;;;;;11.29;74.43;99104.34;5035370;28;20033;-64
2023/03/10 02:33:08;;;;;;;15.13;8.55;;;;;;;11.41;74.18;99111.66;5034254;28;20330;-64
2023/03/10 02:35:34;;;;;;;13.80;9.95;;;;;;;11.51;73.50;99114.06;5034796;28;20308;-64
2023/03/10 02:37:59;;;;;;;13.45;8.80;;;;;;;11.62;72.67;99104.84;5034417;28;20256;-64
2023/03/10 02:40:34;;;;;;;11.32;7.82;;;;;;;11.76;71.60;99104.81;5034856;28;20140;-65
2023/03/10 02:43:13;;;;;;;11.60;6.80;;;;;;;11.80;71.60;99106.13;5033067;28;20041;-64
2023/03/10 02:45:41;;;;;;;17.63;9.88;;;;;;;11.85;70.67;99113.53;5032779;28;20147;-64
2023/03/10 02:48:12;;;;;;;11.30;7.22;;;;;;;11.46;71.68;99117.28;5034395;28;20045;-63
2023/03/10 02:50:41;;;;;;;10.75;8.15;;;;;;;11.34;73.48;99123.19;5030359;28;20068;-64
2023/03/10 02:53:12;;;;;;;11.60;8.02;;;;;;;11.13;74.15;99122.06;5035283;28;20067;-64
2023/03/10 02:55:39;;;;;;;17.58;9.57;;;;;;;11.22;74.41;99133.41;5033992;28;20247;-64
2023/03/10 02:58:04;;;;;;;18.15;13.15;;;;;;;11.40;74.13;99135.72;5035392;28;20036;-65
2023/03/10 03:00:30;;;;;;;15.40;8.95;;;;;;;11.45;72.84;99136.03;5034349;28;20030;-64
2023/03/10 03:02:56;;;;;;;14.10;9.75;;;;;;;11.45;72.53;99128.88;5034555;28;20071;-64
2023/03/10 03:05:22;;;;;;;20.42;13.82;;;;;;;11.71;72.32;99138.22;5034070;28;20042;-63
2023/03/10 03:07:47;;;;;;;18.83;12.93;;;;;;;11.65;72.40;99139.78;5033914;28;20052;-63
2023/03/10 03:10:13;;;;;;;14.95;10.07;;;;;;;11.80;71.83;99134.47;5034460;28;20061;-65
2023/03/10 03:12:38;;;;;;;14.55;9.02;;;;;;;11.82;70.83;99129.81;5033576;28;20045;-64
2023/03/10 03:15:04;;;;;;;10.23;7.93;;;;;;;11.86;71.45;99123.13;5033769;28;20040;-64
2023/03/10 03:17:29;;;;;;;11.88;7.88;;;;;;;11.93;70.85;99120.56;5033388;28;20045;-64
2023/03/10 03:19:55;;;;;;;11.40;8.25;;;;;;;12.04;70.97;99128.88;5033987;28;20077;-63
2023/03/10 03:22:21;;;;;;;12.13;8.00;;;;;;;12.03;71.18;99119.25;5033230;28;20094;-64
2023/03/10 03:24:46;;;;;;;14.00;8.30;;;;;;;12.17;70.15;99122.88;5033368;28;20338;-65
2023/03/10 03:27:11;;;;;;;28.52;12.15;;;;;;;12.06;70.07;99124.19;5031195;28;20355;-65
2023/03/10 03:29:37;;;;;;;84.93;29.13;;;;;;;12.21;69.58;99118.84;5032877;28;20200;-64
2023/03/10 03:32:03;;;;;;;43.90;16.52;;;;;;;12.19;69.25;99123.50;5032184;28;20049;-64
2023/03/10 03:34:28;;;;;;;30.30;13.95;;;;;;;12.12;69.71;99106.69;5033295;28;20103;-64
2023/03/10 03:36:54;;;;;;;22.95;12.15;;;;;;;12.28;69.58;99111.78;5032993;28;20308;-64
2023/03/10 03:39:19;;;;;;;18.40;11.93;;;;;;;12.35;68.84;99111.84;5032764;28;20037;-64
2023/03/10 03:41:45;;;;;;;29.10;15.90;;;;;;;12.23;69.11;99108.03;5032855;28;20033;-64
2023/03/10 03:44:10;;;;;;;22.92;14.25;;;;;;;12.37;68.09;99110.63;5033717;28;20246;-64
2023/03/10 03:46:36;;;;;;;17.38;10.68;;;;;;;12.45;67.53;99105.22;5033767;28;20067;-65
2023/03/10 03:49:01;;;;;;;16.13;9.65;;;;;;;12.40;67.70;99101.47;5032894;28;20362;-64
2023/03/10 03:51:27;;;;;;;12.30;8.05;;;;;;;12.40;66.56;99107.59;5034056;28;20071;-64
2023/03/10 03:53:52;;;;;;;12.77;8.00;;;;;;;12.43;67.08;99101.09;5032738;28;20029;-64
2023/03/10 03:56:18;;;;;;;15.02;8.35;;;;;;;12.45;66.60;99094.59;5033433;28;20033;-64
2023/03/10 03:58:43;;;;;;;12.38;8.13;;;;;;;12.42;67.04;99097.63;5032509;28;20058;-64
2023/03/10 04:01:09;;;;;;;16.05;9.25;;;;;;;12.43;67.63;99107.22;5033314;28;20570;-64
2023/03/10 04:03:34;;;;;;;14.18;8.77;;;;;;;12.32;67.97;99106.91;5032470;28;20026;-65
2023/03/10 04:06:00;;;;;;;11.85;8.48;;;;;;;12.29;68.08;99110.75;5033926;28;20416;-66
2023/03/10 04:08:26;;;;;;;15.77;8.73;;;;;;;12.23;68.54;99116.00;5032152;28;20049;-64
2023/03/10 04:10:53;;;;;;;18.23;11.00;;;;;;;12.25;68.84;99119.28;5033564;28;20045;-64
2023/03/10 04:13:19;;;;;;;14.50;9.98;;;;;;;12.09;68.71;99117.69;5032570;28;20373;-64
2023/03/10 04:15:44;;;;;;;13.02;8.77;;;;;;;11.85;69.54;99102.09;5033837;28;20333;-64
2023/03/10 04:18:10;;;;;;;15.57;8.55;;;;;;;12.04;69.02;99118.25;5033437;28;20303;-65
2023/03/10 04:20:36;;;;;;;15.13;8.88;;;;;;;12.06;69.78;99107.44;5032754;28;20398;-65
2023/03/10 04:23:03;;;;;;;13.30;8.85;;;;;;;12.06;69.79;99110.09;5030654;28;20045;-64
2023/03/10 04:25:29;;;;;;;17.27;9.15;;;;;;;12.18;69.28;99092.69;5032009;28;20117;-64
2023/03/10 04:27:56;;;;;;;16.95;9.82;;;;;;;12.03;69.60;99099.84;5033130;28;20251;-64
2023/03/10 04:30:27;;;;;;;15.38;9.20;;;;;;;11.87;69.72;99095.59;5031355;28;20261;-64
2023/03/10 04:32:56;;;;;;;14.38;8.60;;;;;;;11.75;70.66;99091.75;5032068;28;20483;-64
2023/03/10 04:35:22;;;;;;;17.48;9.70;;;;;;;11.79;69.80;99096.53;5032992;28;20252;-64
2023/03/10 04:37:47;;;;;;;15.98;10.43;;;;;;;11.77;69.74;99101.19;5032372;28;20044;-64
2023/03/10 04:40:13;;;;;;;14.20;8.68;;;;;;;11.55;71.03;99102.09;5033373;28;20277;-64
2023/03/10 04:42:40;;;;;;;14.95;9.05;;;;;;;11.47;71.51;99107.50;5031932;28;20037;-65
2023/03/10 04:45:06;;;;;;;14.77;10.13;;;;;;;11.49;71.30;99111.63;5034800;28;20259;-64
2023/03/10 04:47:31;;;;;;;14.93;9.55;;;;;;;11.58;70.60;99122.13;5035800;28;20034;-63
2023/03/10 04:49:57;;;;;;;17.17;10.20;;;;;;;11.55;71.46;99125.13;5036876;28;20076;-64
2023/03/10 04:52:22;;;;;;;19.30;10.85;;;;;;;11.49;71.59;99126.69;5036123;28;20074;-64
2023/03/10 04:54:48;;;;;;;22.35;11.70;;;;;;;11.40;72.39;99119.81;5036217;28;20334;-64
2023/03/10 04:57:14;;;;;;;19.20;11.02;;;;;;;11.32;73.12;99112.75;5037083;28;20052;-64
2023/03/10 04:59:40;;;;;;;17.52;12.07;;;;;;;11.45;72.90;99112.16;5035931;28;20100;-63
2023/03/10 05:02:05;;;;;;;19.63;12.90;;;;;;;11.64;71.93;99108.13;5037219;28;20084;-63
2023/03/10 05:04:30;;;;;;;16.73;11.02;;;;;;;11.65;71.31;99110.59;5035810;28;20068;-65
2023/03/10 05:06:56;;;;;;;14.73;9.73;;;;;;;11.66;71.44;99106.94;5036555;28;20030;-65
2023/03/10 05:09:21;;;;;;;16.00;10.00;;;;;;;11.83;71.20;99112.91;5036084;28;20056;-64
2023/03/10 05:11:47;;;;;;;16.85;10.18;;;;;;;11.89;69.78;99112.16;5036477;28;20037;-64
2023/03/10 05:14:16;;;;;;;16.48;10.95;;;;;;;11.87;70.13;99122.13;5035268;28;20037;-63
2023/03/10 05:16:42;;;;;;;17.85;10.45;;;;;;;11.93;70.17;99116.06;5036281;28;20037;-64
2023/03/10 05:19:08;;;;;;;15.85;10.20;;;;;;;11.92;69.54;99110.94;5034633;28;20374;-65
2023/03/10 05:21:33;;;;;;;23.42;13.48;;;;;;;11.88;70.67;99112.34;5036561;28;20033;-64
2023/03/10 05:23:59;;;;;;;27.80;15.35;;;;;;;12.08;69.18;99113.38;5035204;28;20410;-64
2023/03/10 05:26:25;;;;;;;42.60;19.95;;;;;;;12.01;68.94;99109.84;5034780;28;20105;-63
2023/03/10 05:28:51;;;;;;;28.05;16.15;;;;;;;11.30;73.61;99116.59;5038708;28;20033;-64
2023/03/10 05:31:16;;;;;;;26.30;14.80;;;;;;;11.36;74.16;99121.19;5039831;28;20037;-63
2023/03/10 05:33:42;;;;;;;35.33;18.17;;;;;;;11.55;73.10;99111.88;5039596;28;20041;-63
2023/03/10 05:36:11;;;;;;;22.35;12.88;;;;;;;11.48;72.83;99112.63;5040415;28;20051;-64
2023/03/10 05:38:36;;;;;;;31.23;13.57;;;;;;;11.46;73.35;99106.69;5040320;28;20053;-65
2023/03/10 05:41:06;;;;;;;34.35;15.85;;;;;;;11.65;73.08;99115.06;5040869;28;20040;-64
2023/03/10 05:43:31;;;;;;;20.15;12.45;;;;;;;11.61;74.28;99122.56;5040686;28;20120;-63
2023/03/10 05:45:58;;;;;;;21.83;11.65;;;;;;;11.76;73.73;99118.09;5041087;28;20660;-63
2023/03/10 05:48:25;;;;;;;22.13;11.90;;;;;;;11.67;74.05;99121.03;5041119;28;20041;-63
2023/03/10 05:51:01;;;;;;;20.95;12.20;;;;;;;11.82;73.68;99116.56;5040600;28;20041;-63
2023/03/10 05:53:27;;;;;;;18.95;11.75;;;;;;;11.96;72.01;99110.41;5038617;28;20330;-67
2023/03/10 05:55:53;;;;;;;19.50;11.40;;;;;;;11.97;72.06;99106.75;5039871;28;20037;-65
2023/03/10 05:58:19;;;;;;;19.48;11.82;;;;;;;12.00;72.79;99092.28;5040641;28;20362;-63
2023/03/10 06:00:44;;;;;;;18.40;11.57;;;;;;;12.04;72.98;99089.06;5039751;28;20037;-66
2023/03/10 06:03:10;;;;;;;24.52;12.82;;;;;;;12.12;72.99;99090.78;5039740;28;20323;-63
2023/03/10 06:05:35;;;;;;;22.98;14.20;;;;;;;12.24;73.00;99097.22;5040254;28;20344;-63
2023/03/10 06:08:01;;;;;;;21.38;13.05;;;;;;;12.38;72.39;99091.03;5039718;28;20285;-64
2023/03/10 06:10:26;;;;;;;17.92;12.32;;;;;;;12.49;71.95;99089.75;5040138;28;20036;-64
2023/03/10 06:12:54;;;;;;;22.27;13.38;;;;;;;12.60;71.14;99091.06;5040534;28;20193;-63
2023/03/10 06:15:19;;;;;;;55.85;23.83;;;;;;;12.67;70.37;99086.63;5032454;28;20093;-63
2023/03/10 06:17:45;;;;;;;40.35;18.95;;;;;;;12.79;70.51;99091.25;5040713;28;20037;-63
2023/03/10 06:20:11;;;;;;;29.27;14.93;;;;;;;12.89;70.41;99087.44;5040003;28;20044;-63
2023/03/10 06:22:36;;;;;;;30.20;15.15;;;;;;;12.95;69.51;99082.16;5035272;28;20184;-63
2023/03/10 06:25:02;;;;;;;32.10;14.63;;;;;;;13.03;69.91;99090.00;5034030;28;20033;-63
2023/03/10 06:27:29;;;;;;;32.67;17.80;;;;;;;13.10;69.29;99090.03;5036194;28;20104;-63
2023/03/10 06:29:54;;;;;;;56.67;30.58;;;;;;;13.18;70.24;99092.56;5035024;28;20434;-63
2023/03/10 06:32:20;;;;;;;73.97;39.95;;;;;;;13.25;69.41;99081.97;5034165;28;20041;-64
2023/03/10 06:34:45;;;;;;;47.20;29.98;;;;;;;13.40;69.13;99083.50;5032665;28;20033;-64
2023/03/10 06:37:11;;;;;;;39.55;21.92;;;;;;;13.53;69.76;99085.44;5032832;28;20041;-63
2023/03/10 06:39:38;;;;;;;44.13;23.27;;;;;;;13.59;69.41;99086.50;5033495;28;20032;-63
2023/03/10 06:42:04;;;;;;;62.85;25.05;;;;;;;13.55;68.26;99083.41;5034544;28;20084;-63
2023/03/10 06:44:29;;;;;;;48.67;21.88;;;;;;;13.64;68.94;99094.72;5033598;28;20270;-63
2023/03/10 06:46:55;;;;;;;32.72;15.50;;;;;;;13.85;68.95;99099.91;5031488;28;20078;-63
2023/03/10 06:49:20;;;;;;;30.63;13.00;;;;;;;14.04;68.08;99099.16;5033486;28;20373;-65
2023/03/10 06:51:46;;;;;;;26.35;13.70;;;;;;;14.15;68.64;99091.63;5032801;28;20045;-65
2023/03/10 06:54:11;;;;;;;25.77;14.23;;;;;;;13.98;69.08;99093.81;5033395;28;20095;-63
2023/03/10 06:56:37;;;;;;;22.70;13.38;;;;;;;14.17;69.42;99087.72;5030808;28;20037;-63
2023/03/10 06:59:02;;;;;;;19.75;11.10;;;;;;;14.31;69.58;99097.41;5032859;28;20060;-63
2023/03/10 07:01:30;;;;;;;18.23;11.43;;;;;;;14.09;70.78;99090.56;5032597;28;20091;-63
2023/03/10 07:03:57;;;;;;;15.75;10.35;;;;;;;14.18;70.95;99084.06;5033124;28;20037;-63
2023/03/10 07:06:23;;;;;;;14.48;11.25;;;;;;;14.34;70.54;99082.84;5032643;28;20036;-63
2023/03/10 07:08:49;;;;;;;13.80;9.82;;;;;;;14.25;71.27;99084.06;5030303;28;20096;-64
2023/03/10 07:11:15;;;;;;;22.35;9.98;;;;;;;14.32;72.75;99083.06;5033542;28;20312;-64
2023/03/10 07:13:41;;;;;;;15.73;9.98;;;;;;;14.33;72.01;99079.38;5032948;28;20033;-63
2023/03/10 07:16:07;;;;;;;15.73;9.32;;;;;;;14.34;71.76;99080.19;5033246;28;20397;-63
2023/03/10 07:18:33;;;;;;;16.17;8.68;;;;;;;14.04;73.37;99075.22;5033609;28;20040;-63
2023/03/10 07:20:58;;;;;;;14.02;9.32;;;;;;;14.02;74.04;99063.13;5033212;28;20236;-63
2023/03/10 07:23:24;;;;;;;19.40;11.27;;;;;;;14.02;76.46;99069.25;5030531;28;20041;-63
2023/03/10 07:25:55;;;;;;;19.85;11.18;;;;;;;13.77;78.28;99070.81;5033560;28;20037;-63
2023/03/10 07:28:21;;;;;;;14.82;9.32;;;;;;;13.55;77.63;99071.94;5032364;28;20201;-63
2023/03/10 07:30:48;;;;;;;12.73;8.55;;;;;;;13.54;76.95;99063.16;5032270;28;20033;-63
2023/03/10 07:33:14;;;;;;;10.90;8.55;;;;;;;13.47;77.66;99075.56;5033137;28;20033;-63
2023/03/10 07:35:40;;;;;;;10.45;8.30;;;;;;;13.77;77.32;99075.31;5033733;28;20033;-63
2023/03/10 07:38:06;;;;;;;14.05;8.18;;;;;;;13.53;79.13;99074.81;5033764;28;20041;-64
2023/03/10 07:40:32;;;;;;;11.90;7.45;;;;;;;13.86;78.98;99084.78;5031611;28;20049;-64
2023/03/10 07:42:57;;;;;;;14.50;7.90;;;;;;;13.99;80.70;99067.00;5033133;28;20289;-63
2023/03/10 07:45:25;;;;;;;18.27;8.88;;;;;;;14.10;78.80;99078.91;5032124;28;20049;-63
2023/03/10 07:47:51;;;;;;;10.18;7.88;;;;;;;13.81;79.81;99082.69;5031053;28;20033;-63
2023/03/10 07:50:16;;;;;;;13.93;9.07;;;;;;;13.95;80.75;99086.25;5032480;28;20091;-63
2023/03/10 07:52:42;;;;;;;16.38;9.80;;;;;;;14.02;80.00;99082.56;5031059;28;20041;-63
2023/03/10 07:55:08;;;;;;;21.10;11.15;;;;;;;14.09;79.50;99079.94;5030957;28;20033;-63
2023/03/10 07:57:33;;;;;;;13.25;8.60;;;;;;;13.82;80.26;99079.03;5030188;28;20041;-63
2023/03/10 07:59:59;;;;;;;13.02;8.88;;;;;;;13.85;83.13;99080.47;5031347;28;20339;-65
2023/03/10 08:02:24;;;;;;;13.05;7.97;;;;;;;14.06;80.00;99081.16;5029003;28;20044;-65
2023/03/10 08:04:51;;;;;;;12.32;8.20;;;;;;;14.11;78.90;99083.22;5031487;28;20033;-66
2023/03/10 08:07:16;;;;;;;11.32;8.57;;;;;;;14.23;77.58;99080.78;5029826;28;20112;-64
2023/03/10 08:09:47;;;;;;;16.33;9.07;;;;;;;14.28;76.60;99081.81;5028800;28;20247;-64
2023/03/10 08:12:13;;;;;;;12.00;8.15;;;;;;;14.37;77.28;99085.94;5029514;28;20259;-64
2023/03/10 08:14:38;;;;;;;11.23;8.40;;;;;;;14.45;76.58;99078.81;5028928;28;20034;-64
2023/03/10 08:17:03;;;;;;;12.32;8.35;;;;;;;14.46;77.51;99072.44;5031226;28;20766;-64
2023/03/10 08:19:29;;;;;;;10.18;7.30;;;;;;;14.22;77.33;99073.81;5029385;28;20067;-66
2023/03/10 08:21:56;;;;;;;9.02;7.22;;;;;;;14.43;76.61;99068.34;5031716;28;20045;-65
2023/03/10 08:24:22;;;;;;;11.77;6.70;;;;;;;14.52;76.95;99061.81;5029545;28;20037;-64
2023/03/10 08:26:48;;;;;;;7.72;5.90;;;;;;;14.57;75.45;99064.72;5030565;28;20067;-64
2023/03/10 08:29:13;;;;;;;8.50;6.13;;;;;;;14.49;76.83;99058.72;5029617;28;20598;-64
2023/03/10 08:31:39;;;;;;;7.75;5.60;;;;;;;14.45;75.15;99060.97;5030590;28;20265;-64
2023/03/10 08:34:05;;;;;;;10.85;6.85;;;;;;;14.54;75.32;99050.94;5029156;28;20037;-64
2023/03/10 08:36:30;;;;;;;9.77;6.35;;;;;;;14.45;73.99;99045.00;5031006;28;20038;-64
2023/03/10 08:38:59;;;;;;;9.55;6.18;;;;;;;14.62;74.87;99040.13;5028903;28;20030;-64
2023/03/10 08:41:47;;;;;;;12.20;7.50;;;;;;;14.72;74.47;99042.38;5029704;28;20033;-64
2023/03/10 08:44:14;;;;;;;9.32;6.55;;;;;;;14.80;73.49;99040.31;5030116;28;20398;-64
2023/03/10 08:46:42;;;;;;;9.63;6.72;;;;;;;14.74;73.39;99037.66;5028419;28;20041;-64
2023/03/10 08:49:08;;;;;;;14.38;8.20;;;;;;;14.84;74.03;99036.22;5029228;28;20064;-65
2023/03/10 08:51:34;;;;;;;12.60;7.43;;;;;;;14.91;74.68;99037.03;5028765;28;20038;-65
2023/03/10 08:54:00;;;;;;;8.93;7.03;;;;;;;15.08;72.38;99032.06;5030849;28;20211;-64
2023/03/10 08:56:26;;;;;;;13.15;8.20;;;;;;;15.06;74.22;99031.47;5029078;28;20036;-64
2023/03/10 08:58:55;;;;;;;8.35;6.20;;;;;;;14.94;73.98;99019.78;5030627;28;20041;-64
2023/03/10 09:01:21;;;;;;;8.93;5.65;;;;;;;14.98;72.77;99023.69;5029117;28;20025;-64
2023/03/10 09:03:46;;;;;;;8.65;6.18;;;;;;;15.05;71.64;99018.34;5031189;28;20029;-63
2023/03/10 09:06:12;;;;;;;8.05;5.80;;;;;;;15.27;70.43;99009.03;5030117;28;20033;-64
2023/03/10 09:08:39;;;;;;;8.85;6.10;;;;;;;15.09;71.03;98993.72;5029692;28;20347;-64
2023/03/10 09:11:05;;;;;;;8.73;6.80;;;;;;;15.22;71.66;99006.19;5029625;28;20305;-64
2023/03/10 09:13:31;;;;;;;10.70;6.88;;;;;;;15.36;73.11;99004.28;5030827;28;20048;-65
2023/03/10 09:15:56;;;;;;;11.20;7.50;;;;;;;15.47;72.20;98992.97;5030806;28;20042;-64
2023/03/10 09:18:21;;;;;;;12.32;7.28;;;;;;;15.72;71.20;98990.44;5029822;28;20041;-64
2023/03/10 09:20:47;;;;;;;10.30;7.10;;;;;;;15.85;69.76;98980.50;5030486;28;20095;-64
2023/03/10 09:23:14;;;;;;;9.00;6.88;;;;;;;15.99;68.88;98983.09;5030132;28;20037;-63
2023/03/10 09:25:39;;;;;;;8.65;6.70;;;;;;;15.99;68.84;98981.25;5031132;28;20381;-64
2023/03/10 09:28:06;;;;;;;10.10;6.97;;;;;;;16.14;68.62;98979.09;5030308;28;20041;-64
2023/03/10 09:30:36;;;;;;;9.20;7.15;;;;;;;16.22;69.39;98972.66;5032663;28;20089;-64
2023/03/10 09:33:21;;;;;;;7.55;5.80;;;;;;;16.14;68.07;98971.06;5033857;28;20049;-65
2023/03/10 09:35:49;;;;;;;10.30;6.43;;;;;;;16.11;68.75;98966.16;5032575;28;20508;-66
2023/03/10 09:38:14;;;;;;;5.53;4.40;;;;;;;16.18;64.74;98961.59;5033528;28;20056;-64
2023/03/10 09:41:09;;;;;;;6.10;4.78;;;;;;;16.40;66.26;98955.88;5034591;28;20270;-64
2023/03/10 09:43:38;;;;;;;5.80;4.13;;;;;;;16.53;61.61;98950.41;5032907;28;20142;-64
2023/03/10 09:46:26;;;;;;;5.30;3.90;;;;;;;16.45;62.88;98940.00;5033561;28;20100;-65
2023/03/10 09:49:08;;;;;;;5.05;4.13;;;;;;;16.59;63.14;98934.31;5034941;28;20049;-65
2023/03/10 09:51:37;;;;;;;5.90;4.10;;;;;;;16.71;61.52;98929.13;5034852;28;20034;-65
2023/03/10 09:54:32;;;;;;;6.28;4.15;;;;;;;16.78;63.01;98923.72;5033592;28;20033;-65
2023/03/10 09:56:59;;;;;;;6.55;4.00;;;;;;;16.78;62.23;98918.38;5034558;28;20080;-65
2023/03/10 09:59:36;;;;;;;6.25;3.75;;;;;;;16.75;61.06;98924.16;5033560;28;20038;-65
2023/03/10 10:02:14;;;;;;;4.90;3.65;;;;;;;16.78;60.15;98916.50;5033600;28;20068;-64
2023/03/10 10:04:41;;;;;;;7.20;3.50;;;;;;;17.05;61.16;98916.22;5034691;28;20041;-66
2023/03/10 10:07:21;;;;;;;4.97;3.50;;;;;;;17.10;59.75;98897.63;5032749;28;20087;-66
2023/03/10 10:09:57;;;;;;;6.57;3.60;;;;;;;17.14;60.30;98898.81;5032120;28;20057;-65
2023/03/10 10:12:24;;;;;;;4.50;3.17;;;;;;;17.23;59.55;98892.94;5031223;28;20038;-65
2023/03/10 10:14:56;;;;;;;4.85;3.28;;;;;;;17.34;59.10;98895.88;5034376;28;20073;-65
2023/03/10 10:17:37;;;;;;;7.10;3.65;;;;;;;17.45;59.82;98887.91;5032742;28;20121;-65
2023/03/10 10:20:14;;;;;;;4.53;3.35;;;;;;;17.56;60.46;98888.97;5032816;28;20223;-65
2023/03/10 10:22:43;;;;;;;5.85;4.00;;;;;;;17.62;58.74;98873.88;5032099;28;20034;-65
2023/03/10 10:25:09;;;;;;;6.18;3.58;;;;;;;17.58;59.83;98868.16;5033649;28;20037;-65
2023/03/10 10:27:36;;;;;;;3.40;3.10;;;;;;;17.60;60.54;98858.03;5031979;28;20423;-65
2023/03/10 10:30:26;;;;;;;3.97;3.00;;;;;;;17.73;60.15;98865.94;5033069;28;20048;-65
2023/03/10 10:33:09;;;;;;;4.30;3.47;;;;;;;17.71;59.94;98849.28;5031505;28;20146;-65
2023/03/10 10:35:58;;;;;;;5.85;3.28;;;;;;;17.75;61.15;98855.00;5031112;28;20108;-65
2023/03/10 10:38:29;;;;;;;11.18;3.45;;;;;;;17.79;60.90;98837.41;5031630;28;20128;-65
2023/03/10 10:41:06;;;;;;;4.18;3.22;;;;;;;17.73;61.48;98830.31;5033134;28;20097;-65
2023/03/10 10:43:49;;;;;;;5.05;3.03;;;;;;;17.83;61.83;98814.50;5031717;28;20053;-65
2023/03/10 10:46:24;;;;;;;4.97;2.50;;;;;;;17.91;60.59;98816.81;5031996;28;20316;-65
2023/03/10 10:49:03;;;;;;;2.95;2.60;;;;;;;17.98;62.75;98796.09;5032258;28;20258;-65
2023/03/10 10:51:34;;;;;;;6.47;2.67;;;;;;;18.11;60.34;98782.47;5032073;28;20091;-65
2023/03/10 10:54:20;;;;;;;3.58;2.63;;;;;;;18.21;61.99;98778.38;5033525;28;20255;-65
2023/03/10 10:56:54;;;;;;;3.83;2.30;;;;;;;18.34;59.79;98759.38;5033253;28;20049;-65
2023/03/10 10:59:26;;;;;;;3.55;2.38;;;;;;;18.43;59.56;98749.91;5035680;28;20100;-65
2023/03/10 11:01:55;;;;;;;5.25;3.38;;;;;;;18.60;57.41;98739.25;5039944;28;20168;-65
2023/03/10 11:04:22;;;;;;;6.15;2.40;;;;;;;18.71;57.82;98727.72;5037643;28;20041;-66
2023/03/10 11:06:49;;;;;;;2.90;2.20;;;;;;;18.79;56.18;98717.44;5038385;28;20111;-65
2023/03/10 11:09:22;;;;;;;2.83;2.63;;;;;;;19.02;56.39;98700.41;5038832;28;20032;-65
2023/03/10 11:12:07;;;;;;;3.70;2.38;;;;;;;19.12;55.34;98710.50;5038317;28;20331;-65
2023/03/10 11:15:00;;;;;;;3.92;2.60;;;;;;;19.11;55.65;98690.91;5039527;28;20225;-65
2023/03/10 11:17:34;;;;;;;3.53;2.17;;;;;;;19.04;54.67;98687.56;5039338;28;20045;-65
2023/03/10 11:20:22;;;;;;;2.20;1.75;;;;;;;18.98;54.71;98683.19;5039752;28;20452;-65
2023/03/10 11:23:00;;;;;;;7.75;2.78;;;;;;;19.05;55.92;98669.59;5039652;28;20334;-64
2023/03/10 11:25:36;;;;;;;2.88;2.10;;;;;;;19.05;56.87;98670.41;5038350;28;20040;-65
2023/03/10 11:28:39;;;;;;;3.83;2.10;;;;;;;19.13;54.90;98659.28;5039910;28;20048;-65
2023/03/10 11:31:32;;;;;;;3.95;2.30;;;;;;;19.16;55.95;98652.63;5038820;28;20121;-66